createdAt,value
2018-05-10T00:00:34.234Z,97600.88
2018-05-10T00:03:01.623Z,97602.97
2018-05-10T00:05:29.005Z,97605.48
2018-05-10T00:07:56.504Z,97604.23
2018-05-10T00:10:23.788Z,97607.55
2018-05-10T00:12:51.188Z,97610.91
2018-05-10T00:15:18.595Z,97612.74
2018-05-10T00:17:45.971Z,97612.78
2018-05-10T00:20:13.360Z,97606.29
2018-05-10T00:22:40.831Z,97602.02
2018-05-10T00:25:08.224Z,97602.80
2018-05-10T00:27:35.612Z,97598.33
2018-05-10T00:30:02.993Z,97604.52
2018-05-10T00:32:30.391Z,97603.56
2018-05-10T00:34:57.773Z,97606.38
2018-05-10T00:37:25.179Z,97601.77
2018-05-10T00:39:52.561Z,97602.83
2018-05-10T00:42:19.945Z,97599.06
2018-05-10T00:44:47.644Z,97603.73
2018-05-10T00:47:15.041Z,97610.60
2018-05-10T00:49:42.428Z,97607.87
2018-05-10T00:52:09.821Z,97610.73
2018-05-10T00:54:49.092Z,97611.34
2018-05-10T00:57:16.481Z,97614.38
2018-05-10T00:59:43.882Z,97611.77
2018-05-10T01:02:12.002Z,97609.72
2018-05-10T01:04:39.404Z,97604.05
2018-05-10T01:07:06.800Z,97609.80
2018-05-10T01:09:34.198Z,97599.77
2018-05-10T01:12:01.584Z,97605.52
2018-05-10T01:14:29.008Z,97606.20
2018-05-10T01:16:56.409Z,97603.09
2018-05-10T01:19:23.795Z,97603.33
2018-05-10T01:21:51.192Z,97596.81
2018-05-10T01:24:18.584Z,97600.07
2018-05-10T01:26:45.994Z,97601.69
2018-05-10T01:29:13.399Z,97602.30
2018-05-10T01:31:40.795Z,97607.74
2018-05-10T01:34:08.210Z,97603.58
2018-05-10T01:36:35.869Z,97609.83
2018-05-10T01:39:03.260Z,97610.47
2018-05-10T01:41:30.654Z,97615.20
2018-05-10T01:43:58.052Z,97616.52
2018-05-10T01:46:25.449Z,97615.61
2018-05-10T01:48:52.844Z,97621.06
2018-05-10T01:51:20.227Z,97616.45
2018-05-10T01:53:47.631Z,97617.54
2018-05-10T01:56:15.021Z,97619.53
2018-05-10T01:58:42.416Z,97626.45
2018-05-10T02:01:09.818Z,97624.14
2018-05-10T02:03:37.212Z,97620.02
2018-05-10T02:06:04.629Z,97623.00
2018-05-10T02:08:32.020Z,97620.98
2018-05-10T02:10:59.439Z,97615.55
2018-05-10T02:13:26.820Z,97629.55
2018-05-10T02:15:54.243Z,97630.87
2018-05-10T02:18:21.616Z,97629.95
2018-05-10T02:20:49.021Z,97632.44
2018-05-10T02:23:16.417Z,97638.17
2018-05-10T02:25:43.808Z,97630.75
2018-05-10T02:28:11.210Z,97636.25
2018-05-10T02:30:38.616Z,97634.57
2018-05-10T02:33:06.017Z,97637.39
2018-05-10T02:35:33.423Z,97635.19
2018-05-10T02:38:00.833Z,97634.02
2018-05-10T02:40:28.234Z,97638.36
2018-05-10T02:42:55.628Z,97644.84
2018-05-10T02:45:23.024Z,97640.38
2018-05-10T02:47:50.421Z,97643.66
2018-05-10T02:50:17.833Z,97647.13
2018-05-10T02:52:45.223Z,97644.35
2018-05-10T02:55:12.633Z,97650.32
2018-05-10T02:57:40.025Z,97644.74
2018-05-10T03:00:07.428Z,97649.64
2018-05-10T03:02:34.828Z,97647.14
2018-05-10T03:05:02.225Z,97652.08
2018-05-10T03:07:29.721Z,97657.81
2018-05-10T03:09:57.099Z,97657.22
2018-05-10T03:12:24.501Z,97658.28
2018-05-10T03:14:52.605Z,97660.13
2018-05-10T03:17:19.994Z,97661.09
2018-05-10T03:19:47.597Z,97659.27
2018-05-10T03:22:14.996Z,97665.62
2018-05-10T03:24:42.390Z,97666.52
2018-05-10T03:27:09.796Z,97668.77
2018-05-10T03:29:37.194Z,97665.69
2018-05-10T03:32:04.594Z,97662.41
2018-05-10T03:34:31.976Z,97654.70
2018-05-10T03:36:59.382Z,97660.80
2018-05-10T03:39:26.780Z,97666.42
2018-05-10T03:41:54.177Z,97665.00
2018-05-10T03:44:21.563Z,97666.66
2018-05-10T03:46:48.955Z,97666.25
2018-05-10T03:49:16.357Z,97674.60
2018-05-10T03:51:43.755Z,97665.83
2018-05-10T03:54:11.192Z,97673.16
2018-05-10T03:56:38.584Z,97680.68
2018-05-10T03:59:05.993Z,97678.09
2018-05-10T04:01:33.387Z,97677.45
2018-05-10T04:07:15.808Z,97685.95
2018-05-10T04:09:55.184Z,97692.41
2018-05-10T04:12:22.580Z,97696.15
2018-05-10T04:14:49.988Z,97694.33
2018-05-10T04:17:17.389Z,97697.18
2018-05-10T04:19:44.780Z,97694.05
2018-05-10T04:22:12.183Z,97701.98
2018-05-10T04:24:39.577Z,97707.02
2018-05-10T04:27:06.996Z,97720.91
2018-05-10T04:29:34.393Z,97717.28
2018-05-10T04:32:01.793Z,97718.81
2018-05-10T04:34:29.214Z,97715.61
2018-05-10T04:36:56.618Z,97723.81
2018-05-10T04:39:24.015Z,97720.69
2018-05-10T04:41:51.409Z,97718.97
2018-05-10T04:44:19.840Z,97726.85
2018-05-10T04:46:47.253Z,97724.28
2018-05-10T04:49:14.651Z,97724.28
2018-05-10T04:51:42.046Z,97725.98
2018-05-10T04:54:09.444Z,97722.27
2018-05-10T04:56:36.830Z,97719.70
2018-05-10T04:59:04.253Z,97720.72
2018-05-10T05:01:31.645Z,97723.14
2018-05-10T05:03:59.048Z,97717.77
2018-05-10T05:06:26.440Z,97713.53
2018-05-10T05:08:53.914Z,97720.49
2018-05-10T05:11:21.304Z,97724.32
2018-05-10T05:13:48.700Z,97729.13
2018-05-10T05:16:16.095Z,97743.47
2018-05-10T05:18:43.508Z,97736.97
2018-05-10T05:21:10.899Z,97738.55
2018-05-10T05:23:38.301Z,97750.05
2018-05-10T05:26:05.695Z,97747.39
2018-05-10T05:28:33.104Z,97748.45
2018-05-10T05:31:00.496Z,97754.77
2018-05-10T05:33:27.900Z,97757.66
2018-05-10T05:35:55.300Z,97758.48
2018-05-10T05:38:22.696Z,97766.63
2018-05-10T05:40:50.091Z,97763.89
2018-05-10T05:43:17.504Z,97763.22
2018-05-10T05:45:44.884Z,97768.10
2018-05-10T05:48:12.288Z,97771.33
2018-05-10T05:50:39.696Z,97775.53
2018-05-10T05:53:07.076Z,97772.70
2018-05-10T05:55:34.480Z,97771.73
2018-05-10T05:58:01.885Z,97786.32
2018-05-10T06:00:29.288Z,97773.97
2018-05-10T06:02:56.684Z,97776.84
2018-05-10T06:05:24.085Z,97780.47
2018-05-10T06:07:52.380Z,97780.64
2018-05-10T06:10:19.798Z,97779.92
2018-05-10T06:12:47.742Z,97785.23
2018-05-10T06:15:15.147Z,97784.33
2018-05-10T06:17:42.538Z,97788.38
2018-05-10T06:20:09.944Z,97791.22
2018-05-10T06:22:37.332Z,97801.25
2018-05-10T06:25:04.835Z,97819.53
2018-05-10T06:27:32.128Z,97825.11
2018-05-10T06:29:59.538Z,97836.30
2018-05-10T06:32:26.944Z,97836.94
2018-05-10T06:34:54.343Z,97834.23
2018-05-10T06:37:21.753Z,97842.88
2018-05-10T06:39:49.310Z,97842.19
2018-05-10T06:42:16.739Z,97848.00
2018-05-10T06:44:44.191Z,97846.58
2018-05-10T06:47:11.588Z,97848.82
2018-05-10T06:49:38.996Z,97851.55
2018-05-10T06:52:07.220Z,97858.52
2018-05-10T06:54:34.630Z,97854.05
2018-05-10T06:57:02.024Z,97861.80
2018-05-10T06:59:29.403Z,97861.23
2018-05-10T07:01:56.811Z,97860.74
2018-05-10T07:04:24.661Z,97859.02
2018-05-10T07:06:52.068Z,97859.73
2018-05-10T07:09:19.551Z,97864.91
2018-05-10T07:11:46.861Z,97868.70
2018-05-10T07:14:14.256Z,97854.59
2018-05-10T07:16:41.664Z,97855.00
2018-05-10T07:19:09.061Z,97861.47
2018-05-10T07:21:36.466Z,97862.66
2018-05-10T07:24:03.880Z,97865.73
2018-05-10T07:26:31.321Z,97870.69
2018-05-10T07:28:58.703Z,97869.44
2018-05-10T07:31:26.104Z,97877.50
2018-05-10T07:33:54.381Z,97888.19
2018-05-10T07:36:21.781Z,97894.04
2018-05-10T07:38:49.244Z,97898.19
2018-05-10T07:41:16.659Z,97899.80
2018-05-10T07:43:44.046Z,97905.84
2018-05-10T07:46:11.443Z,97907.99
2018-05-10T07:48:38.842Z,97912.50
2018-05-10T07:51:06.223Z,97912.16
2018-05-10T07:53:33.620Z,97920.70
2018-05-10T07:56:01.009Z,97919.66
2018-05-10T07:58:28.584Z,97929.58
2018-05-10T08:00:56.033Z,97941.62
2018-05-10T08:03:23.424Z,97938.33
2018-05-10T08:05:50.826Z,97942.53
2018-05-10T08:08:18.212Z,97954.12
2018-05-10T08:10:45.587Z,97963.38
2018-05-10T08:13:12.990Z,97963.25
2018-05-10T08:15:40.585Z,97971.89
2018-05-10T08:18:08.019Z,97965.99
2018-05-10T08:20:35.398Z,97975.67
2018-05-10T08:23:02.793Z,97977.28
2018-05-10T08:25:30.182Z,97977.34
2018-05-10T08:27:57.572Z,97983.38
2018-05-10T08:30:24.956Z,97990.52
2018-05-10T08:32:52.432Z,97993.72
2018-05-10T08:35:20.020Z,97991.34
2018-05-10T08:37:47.417Z,98003.80
2018-05-10T08:40:14.808Z,98000.27
2018-05-10T08:42:42.212Z,98006.04
2018-05-10T08:45:09.677Z,98007.16
2018-05-10T08:47:37.002Z,98007.16
2018-05-10T08:50:04.397Z,98014.77
2018-05-10T08:52:31.860Z,98022.34
2018-05-10T08:54:59.265Z,98019.13
2018-05-10T08:57:26.657Z,98026.43
2018-05-10T08:59:54.142Z,98027.03
2018-05-10T09:02:22.012Z,98036.08
2018-05-10T09:04:49.411Z,98040.38
2018-05-10T09:07:16.852Z,98036.25
2018-05-10T09:09:44.252Z,98044.41
2018-05-10T09:12:11.629Z,98041.63
2018-05-10T09:14:39.081Z,98044.37
2018-05-10T09:17:07.189Z,98047.95
2018-05-10T09:19:34.595Z,98045.54
2018-05-10T09:22:01.995Z,98051.68
2018-05-10T09:24:29.448Z,98053.55
2018-05-10T09:26:56.972Z,98055.58
2018-05-10T09:29:24.421Z,98056.51
2018-05-10T09:31:51.848Z,98065.14
2018-05-10T09:34:19.284Z,98067.39
2018-05-10T09:36:46.619Z,98077.48
2018-05-10T09:39:14.095Z,98082.41
2018-05-10T09:41:41.408Z,98084.88
2018-05-10T09:44:08.810Z,98086.72
2018-05-10T09:46:36.190Z,98095.66
2018-05-10T09:49:03.588Z,98103.66
2018-05-10T09:51:31.659Z,98106.46
2018-05-10T09:54:00.004Z,98119.05
2018-05-10T09:56:27.396Z,98112.92
2018-05-10T09:58:54.793Z,98120.94
2018-05-10T10:01:22.225Z,98117.69
2018-05-10T10:03:49.621Z,98117.87
2018-05-10T10:06:17.011Z,98127.80
2018-05-10T10:08:44.404Z,98131.34
2018-05-10T10:11:12.363Z,98135.25
2018-05-10T10:13:40.046Z,98139.05
2018-05-10T10:16:07.478Z,98137.27
2018-05-10T10:18:34.970Z,98137.19
2018-05-10T10:21:02.421Z,98134.66
2018-05-10T10:23:29.815Z,98137.03
2018-05-10T10:25:57.209Z,98133.98
2018-05-10T10:28:24.598Z,98142.14
2018-05-10T10:30:52.001Z,98141.34
2018-05-10T10:33:19.384Z,98140.03
2018-05-10T10:35:46.787Z,98138.43
2018-05-10T10:38:14.253Z,98148.61
2018-05-10T10:40:42.347Z,98148.67
2018-05-10T10:43:09.724Z,98149.40
2018-05-10T10:45:37.132Z,98159.25
2018-05-10T10:48:04.517Z,98157.11
2018-05-10T10:50:31.949Z,98161.65
2018-05-10T10:52:59.486Z,98164.30
2018-05-10T10:55:26.833Z,98166.67
2018-05-10T10:57:54.216Z,98169.63
2018-05-10T11:00:21.619Z,98166.25
2018-05-10T11:02:49.005Z,98173.98
2018-05-10T11:05:16.422Z,98171.70
2018-05-10T11:07:43.789Z,98187.58
2018-05-10T11:10:11.175Z,98176.31
2018-05-10T11:12:38.613Z,98176.48
2018-05-10T11:15:06.096Z,98179.70
2018-05-10T11:17:33.394Z,98183.91
2018-05-10T11:20:00.780Z,98186.52
2018-05-10T11:22:28.215Z,98198.81
2018-05-10T11:24:55.591Z,98186.50
2018-05-10T11:27:23.018Z,98189.56
2018-05-10T11:29:50.528Z,98186.44
2018-05-10T11:32:17.939Z,98195.64
2018-05-10T11:34:45.316Z,98202.48
2018-05-10T11:37:12.720Z,98205.83
2018-05-10T11:39:40.107Z,98206.41
2018-05-10T11:42:07.508Z,98208.96
2018-05-10T11:44:34.967Z,98212.58
2018-05-10T11:47:02.305Z,98211.05
2018-05-10T11:49:29.700Z,98212.30
2018-05-10T11:51:57.106Z,98212.03
2018-05-10T11:54:24.501Z,98221.73
2018-05-10T11:56:51.904Z,98225.37
2018-05-10T11:59:19.297Z,98234.36
2018-05-10T12:01:47.456Z,98239.47
2018-05-10T12:04:14.858Z,98241.27
2018-05-10T12:06:42.322Z,98246.13
2018-05-10T12:09:09.704Z,98240.94
2018-05-10T12:11:37.093Z,98236.81
2018-05-10T12:14:05.360Z,98242.72
2018-05-10T12:16:32.764Z,98245.75
2018-05-10T12:19:00.150Z,98251.86
2018-05-10T12:21:27.532Z,98258.17
2018-05-10T12:23:54.964Z,98258.41
2018-05-10T12:26:22.388Z,98260.81
2018-05-10T12:28:50.721Z,98257.61
2018-05-10T12:31:18.145Z,98265.05
2018-05-10T12:33:45.539Z,98261.34
2018-05-10T12:36:12.923Z,98261.38
2018-05-10T12:38:40.327Z,98272.77
2018-05-10T12:41:08.062Z,98276.53
2018-05-10T12:43:36.502Z,98276.42
2018-05-10T12:46:03.885Z,98279.30
2018-05-10T12:48:31.332Z,98281.46
2018-05-10T12:50:58.719Z,98286.68
2018-05-10T12:53:26.108Z,98288.03
2018-05-10T12:55:53.487Z,98297.66
2018-05-10T12:58:20.888Z,98295.61
2018-05-10T13:00:48.370Z,98300.73
2018-05-10T13:03:15.677Z,98303.08
2018-05-10T13:05:43.186Z,98309.92
2018-05-10T13:08:10.606Z,98320.75
2018-05-10T13:10:37.996Z,98331.22
2018-05-10T13:13:05.381Z,98337.86
2018-05-10T13:15:32.865Z,98338.61
2018-05-10T13:18:00.246Z,98345.25
2018-05-10T13:20:27.633Z,98345.70
2018-05-10T13:22:55.032Z,98349.35
2018-05-10T13:25:22.572Z,98358.48
2018-05-10T13:27:49.966Z,98377.39
2018-05-10T13:30:17.353Z,98373.45
2018-05-10T13:32:44.766Z,98373.48
2018-05-10T13:35:12.180Z,98384.92
2018-05-10T13:37:39.571Z,98377.48
2018-05-10T13:40:06.956Z,98390.77
2018-05-10T13:42:34.336Z,98397.77
2018-05-10T13:45:01.720Z,98407.72
2018-05-10T13:47:29.225Z,98402.71
2018-05-10T13:49:56.518Z,98411.52
2018-05-10T13:52:23.894Z,98414.13
2018-05-10T13:54:51.285Z,98414.13
2018-05-10T13:57:18.673Z,98439.30
2018-05-10T13:59:47.074Z,98431.46
2018-05-10T14:02:14.502Z,98444.44
2018-05-10T14:04:41.899Z,98445.08
2018-05-10T14:07:10.308Z,98457.08
2018-05-10T14:09:37.692Z,98462.70
2018-05-10T14:12:05.085Z,98469.78
2018-05-10T14:14:32.976Z,98477.64
2018-05-10T14:17:00.372Z,98476.83
2018-05-10T14:19:27.760Z,98489.83
2018-05-10T14:21:55.213Z,98501.68
2018-05-10T14:24:22.623Z,98495.69
2018-05-10T14:26:50.047Z,98497.73
2018-05-10T14:29:17.440Z,98508.02
2018-05-10T14:31:44.828Z,98518.64
2018-05-10T14:34:12.299Z,98526.34
2018-05-10T14:36:39.747Z,98530.22
2018-05-10T14:39:07.162Z,98535.64
2018-05-10T14:41:34.555Z,98535.72
2018-05-10T14:44:03.089Z,98546.81
2018-05-10T14:46:30.493Z,98543.75
2018-05-10T14:48:57.876Z,98550.48
2018-05-10T14:51:25.316Z,98554.44
2018-05-10T14:53:52.745Z,98568.65
2018-05-10T14:56:20.139Z,98565.73
2018-05-10T14:58:47.524Z,98567.63
2018-05-10T15:01:14.912Z,98577.19
2018-05-10T15:03:42.804Z,98579.05
2018-05-10T15:06:10.204Z,98579.68
2018-05-10T15:08:37.593Z,98581.91
2018-05-10T15:11:04.986Z,98593.32
2018-05-10T15:13:32.393Z,98588.82
2018-05-10T15:15:59.888Z,98601.05
2018-05-10T15:18:27.288Z,98588.47
2018-05-10T15:20:54.836Z,98615.52
2018-05-10T15:23:22.224Z,98608.19
2018-05-10T15:25:49.628Z,98628.30
2018-05-10T15:28:17.282Z,98617.73
2018-05-10T15:30:44.672Z,98630.58
2018-05-10T15:33:12.045Z,98626.48
2018-05-10T15:35:39.560Z,98632.00
2018-05-10T15:38:07.567Z,98628.00
2018-05-10T15:40:34.952Z,98636.13
2018-05-10T15:43:02.346Z,98645.11
2018-05-10T15:45:29.792Z,98637.37
2018-05-10T15:47:57.185Z,98640.80
2018-05-10T15:50:24.577Z,98636.98
2018-05-10T15:52:51.964Z,98633.38
2018-05-10T15:55:19.352Z,98636.69
2018-05-10T15:57:46.744Z,98638.22
2018-05-10T16:00:14.130Z,98646.26
2018-05-10T16:02:41.540Z,98637.95
2018-05-10T16:05:09.057Z,98645.81
2018-05-10T16:07:36.453Z,98653.33
2018-05-10T16:10:03.837Z,98654.78
2018-05-10T16:12:31.240Z,98662.27
2018-05-10T16:14:58.624Z,98660.49
2018-05-10T16:17:26.028Z,98669.12
2018-05-10T16:19:53.432Z,98671.68
2018-05-10T16:22:20.872Z,98671.18
2018-05-10T16:24:48.255Z,98674.73
2018-05-10T16:27:16.708Z,98680.27
2018-05-10T16:29:44.224Z,98682.08
2018-05-10T16:32:11.620Z,98694.64
2018-05-10T16:34:39.013Z,98696.39
2018-05-10T16:37:06.410Z,98700.91
2018-05-10T16:39:34.053Z,98699.08
2018-05-10T16:42:01.387Z,98708.45
2018-05-10T16:44:28.770Z,98708.05
2018-05-10T16:46:56.447Z,98718.73
2018-05-10T16:49:23.820Z,98716.16
2018-05-10T16:51:51.236Z,98714.71
2018-05-10T16:54:18.626Z,98718.38
2018-05-10T16:56:46.077Z,98726.09
2018-05-10T16:59:13.466Z,98726.01
2018-05-10T17:01:40.861Z,98734.02
2018-05-10T17:04:08.339Z,98734.14
2018-05-10T17:06:35.780Z,98737.90
2018-05-10T17:09:03.169Z,98738.98
2018-05-10T17:11:30.568Z,98746.84
2018-05-10T17:13:57.981Z,98746.64
2018-05-10T17:16:25.381Z,98750.31
2018-05-10T17:18:52.784Z,98753.02
2018-05-10T17:21:20.173Z,98762.88
2018-05-10T17:23:48.188Z,98763.08
2018-05-10T17:26:15.574Z,98767.16
2018-05-10T17:28:42.965Z,98774.47
2018-05-10T17:31:10.360Z,98778.72
2018-05-10T17:33:37.947Z,98784.70
2018-05-10T17:36:05.324Z,98790.07
2018-05-10T17:38:32.720Z,98789.66
2018-05-10T17:41:00.489Z,98796.26
2018-05-10T17:43:27.891Z,98801.19
2018-05-10T17:45:55.280Z,98806.75
2018-05-10T17:48:22.686Z,98802.80
2018-05-10T17:50:50.148Z,98809.75
2018-05-10T17:53:17.533Z,98809.80
2018-05-10T17:55:44.935Z,98818.89
2018-05-10T17:58:12.319Z,98819.21
2018-05-10T18:00:40.038Z,98824.72
2018-05-10T18:03:07.428Z,98830.52
2018-05-10T18:05:34.813Z,98841.12
2018-05-10T18:08:02.294Z,98839.09
2018-05-10T18:10:30.472Z,98839.44
2018-05-10T18:12:57.848Z,98835.31
2018-05-10T18:15:25.240Z,98847.30
2018-05-10T18:17:52.624Z,98850.27
2018-05-10T18:20:20.020Z,98858.73
2018-05-10T18:22:47.407Z,98862.50
2018-05-10T18:25:14.892Z,98854.59
2018-05-10T18:27:42.279Z,98866.84
2018-05-10T18:30:09.671Z,98870.30
2018-05-10T18:32:37.050Z,98877.68
2018-05-10T18:35:04.503Z,98873.80
2018-05-10T18:37:31.982Z,98885.00
2018-05-10T18:39:59.379Z,98883.48
2018-05-10T18:42:26.883Z,98885.48
2018-05-10T18:44:54.431Z,98888.34
2018-05-10T18:47:21.807Z,98892.70
2018-05-10T18:49:49.208Z,98900.44
2018-05-10T18:52:16.596Z,98902.73
2018-05-10T18:54:44.008Z,98904.11
2018-05-10T18:57:11.360Z,98899.95
2018-05-10T18:59:38.752Z,98904.13
2018-05-10T19:02:06.251Z,98908.77
2018-05-10T19:04:34.705Z,98912.13
2018-05-10T19:07:02.083Z,98923.41
2018-05-10T19:09:29.495Z,98935.08
2018-05-10T19:11:56.943Z,98937.73
2018-05-10T19:14:24.332Z,98948.66
2018-05-10T19:16:51.724Z,98949.68
2018-05-10T19:19:19.120Z,98954.92
2018-05-10T19:21:46.521Z,98954.34
2018-05-10T19:24:13.914Z,98968.67
2018-05-10T19:26:41.301Z,98969.72
2018-05-10T19:29:08.672Z,98971.13
2018-05-10T19:31:36.076Z,98976.05
2018-05-10T19:34:03.455Z,98983.21
2018-05-10T19:36:30.861Z,98982.86
2018-05-10T19:38:58.245Z,98981.18
2018-05-10T19:41:25.637Z,98988.92
2018-05-10T19:43:53.024Z,98989.27
2018-05-10T19:46:20.467Z,98993.94
2018-05-10T19:48:47.882Z,98991.77
2018-05-10T19:51:15.296Z,99000.05
2018-05-10T19:53:42.662Z,99005.34
2018-05-10T19:56:10.069Z,99008.53
2018-05-10T19:58:37.456Z,99014.32
2018-05-10T20:01:04.857Z,99007.78
2018-05-10T20:03:32.229Z,99011.27
2018-05-10T20:05:59.658Z,99005.74
2018-05-10T20:08:27.052Z,99011.44
2018-05-10T20:10:54.431Z,99012.63
2018-05-10T20:13:22.757Z,99018.23
2018-05-10T20:15:50.163Z,99020.63
2018-05-10T20:18:17.541Z,99023.24
2018-05-10T20:20:44.934Z,99021.48
2018-05-10T20:23:12.325Z,99030.44
2018-05-10T20:25:39.708Z,99030.12
2018-05-10T20:28:07.103Z,99029.66
2018-05-10T20:30:34.480Z,99028.19
2018-05-10T20:33:01.870Z,99033.22
2018-05-10T20:35:29.271Z,99030.92
2018-05-10T20:37:56.662Z,99034.08
2018-05-10T20:40:24.045Z,99036.01
2018-05-10T20:42:51.439Z,99034.27
2018-05-10T20:45:18.819Z,99033.34
2018-05-10T20:47:46.234Z,99030.05
2018-05-10T20:50:13.633Z,99036.33
2018-05-10T20:52:41.025Z,99041.94
2018-05-10T20:55:09.109Z,99043.20
2018-05-10T20:57:36.512Z,99049.55
2018-05-10T21:00:03.901Z,99048.52
2018-05-10T21:02:31.299Z,99050.52
2018-05-10T21:04:58.675Z,99058.41
2018-05-10T21:07:26.083Z,99056.44
2018-05-10T21:09:53.484Z,99055.03
2018-05-10T21:12:32.680Z,99059.08
2018-05-10T21:15:00.064Z,99055.42
2018-05-10T21:17:27.457Z,99057.69
2018-05-10T21:19:55.042Z,99059.98
2018-05-10T21:22:22.444Z,99063.50
2018-05-10T21:24:49.827Z,99061.72
2018-05-10T21:27:17.223Z,99070.00
2018-05-10T21:29:44.659Z,99070.83
2018-05-10T21:32:12.039Z,99073.79
2018-05-10T21:34:39.452Z,99074.72
2018-05-10T21:37:06.865Z,99071.34
2018-05-10T21:39:34.267Z,99076.46
2018-05-10T21:42:01.660Z,99068.31
2018-05-10T21:44:29.047Z,99065.35
2018-05-10T21:46:56.449Z,99073.20
2018-05-10T21:49:35.636Z,99071.30
2018-05-10T21:52:03.030Z,99077.10
2018-05-10T21:54:30.417Z,99071.63
2018-05-10T21:56:57.853Z,99081.59
2018-05-10T22:05:12.721Z,99075.57
2018-05-10T22:07:40.096Z,99080.34
2018-05-10T22:10:08.284Z,99082.04
2018-05-10T22:12:35.681Z,99077.14
2018-05-10T22:15:03.714Z,99083.42
2018-05-10T22:17:31.092Z,99082.53
2018-05-10T22:19:58.508Z,99082.81
2018-05-10T22:22:26.925Z,99082.09
2018-05-10T22:24:54.329Z,99084.48
2018-05-10T22:27:21.736Z,99082.76
2018-05-10T22:29:49.121Z,99086.36
2018-05-10T22:32:16.520Z,99086.05
2018-05-10T22:34:43.904Z,99078.78
2018-05-10T22:37:11.382Z,99083.40
2018-05-10T22:39:38.769Z,99086.58
2018-05-10T22:42:06.165Z,99091.54
2018-05-10T22:44:33.610Z,99090.61
2018-05-10T22:47:01.140Z,99092.52
2018-05-10T22:49:28.544Z,99093.66
2018-05-10T22:51:56.012Z,99095.52
2018-05-10T22:54:23.324Z,99098.22
2018-05-10T22:56:50.828Z,99099.33
2018-05-10T22:59:18.228Z,99098.98
2018-05-10T23:01:45.649Z,99095.42
2018-05-10T23:04:13.053Z,99095.13
2018-05-10T23:06:40.441Z,99092.38
2018-05-10T23:09:07.824Z,99089.95
2018-05-10T23:11:35.218Z,99083.17
2018-05-10T23:14:02.613Z,99077.90
2018-05-10T23:16:29.997Z,99076.84
2018-05-10T23:18:57.402Z,99071.06
2018-05-10T23:21:24.793Z,99075.66
2018-05-10T23:23:52.180Z,99072.08
2018-05-10T23:26:19.586Z,99070.05
2018-05-10T23:28:46.960Z,99067.00
2018-05-10T23:31:14.361Z,99063.02
2018-05-10T23:33:42.032Z,99069.98
2018-05-10T23:36:09.436Z,99071.92
2018-05-10T23:38:36.827Z,99075.22
2018-05-10T23:41:04.228Z,99069.16
2018-05-10T23:43:32.443Z,99067.84
2018-05-10T23:45:59.903Z,99067.64
2018-05-10T23:48:27.311Z,99072.58
2018-05-10T23:50:54.697Z,99071.14
2018-05-10T23:53:22.085Z,99075.83
2018-05-10T23:55:49.483Z,99075.70
2018-05-10T23:58:16.860Z,99075.25
